Time;durP1;ratioP1;P1;durP2;ratioP2;P2;SDS_P1;SDS_P2;PMS_P1;PMS_P2;Temp;Humidity;BMP_temperature;BMP_pressure;BME280_temperature;BME280_humidity;BME280_pressure;Samples;Min_cycle;Max_cycle;Signal;HPM_P1;HPM_P2
2022/05/22 00:01:32;;;;;;;6.53;4.88;;;;;;;16.16;60.35;99068.22;4989961;28;20544;-82
2022/05/22 00:03:58;;;;;;;7.45;4.90;;;;;;;16.12;60.26;99064.47;5005940;28;20408;-82
2022/05/22 00:06:23;;;;;;;8.32;5.28;;;;;;;16.07;60.50;99044.88;5010812;28;20026;-82
2022/05/22 00:08:48;;;;;;;6.97;4.88;;;;;;;16.10;60.12;99066.66;5010076;28;20028;-82
2022/05/22 00:11:14;;;;;;;9.55;5.13;;;;;;;15.96;60.18;99038.75;5007197;28;20543;-82
2022/05/22 00:13:39;;;;;;;9.48;5.70;;;;;;;16.04;60.03;99054.31;5011900;28;20489;-82
2022/05/22 00:18:49;;;;;;;10.25;5.25;;;;;;;16.01;60.23;99054.84;5009000;28;20061;-82
2022/05/22 00:21:14;;;;;;;9.65;5.57;;;;;;;15.96;60.27;99049.53;5003819;28;20042;-82
2022/05/22 00:23:39;;;;;;;6.80;5.15;;;;;;;15.99;60.12;99053.56;5024669;28;20744;-82
2022/05/22 00:26:04;;;;;;;8.40;5.32;;;;;;;15.96;60.37;99054.09;5004378;28;20434;-82
2022/05/22 00:28:30;;;;;;;8.82;5.65;;;;;;;15.89;60.36;99061.66;5007356;28;20239;-82
2022/05/22 00:30:55;;;;;;;8.93;5.05;;;;;;;15.92;60.54;99071.88;5011039;28;20462;-82
2022/05/22 00:33:20;;;;;;;9.70;5.45;;;;;;;15.92;60.57;99078.09;5012524;28;20037;-82
2022/05/22 00:35:46;;;;;;;8.52;5.18;;;;;;;15.85;60.77;99064.13;5008786;28;20030;-82
2022/05/22 00:38:11;;;;;;;11.02;5.35;;;;;;;15.75;60.85;99054.19;5004431;28;20045;-82
2022/05/22 00:40:37;;;;;;;9.10;5.50;;;;;;;15.80;60.17;99060.63;5003337;28;20048;-82
2022/05/22 00:43:02;;;;;;;9.50;5.15;;;;;;;15.83;60.48;99068.16;5011342;28;20040;-82
2022/05/22 00:45:28;;;;;;;7.10;4.40;;;;;;;15.72;60.49;99057.47;5009880;28;20069;-82
2022/05/22 00:47:54;;;;;;;8.73;4.68;;;;;;;15.80;60.58;99076.78;5006449;28;20116;-82
2022/05/22 00:50:21;;;;;;;7.38;4.25;;;;;;;15.68;61.07;99063.66;5006138;28;20041;-82
2022/05/22 00:52:54;;;;;;;10.20;4.60;;;;;;;15.64;61.14;99078.72;5005280;28;20029;-82
2022/05/22 00:55:30;;;;;;;9.88;4.80;;;;;;;15.69;61.08;99076.03;4993971;28;20534;-82
2022/05/22 00:57:59;;;;;;;7.38;4.88;;;;;;;15.63;61.03;99077.13;5004195;28;20057;-82
2022/05/22 01:00:28;;;;;;;5.97;4.03;;;;;;;15.63;60.81;99069.06;4999686;28;20124;-82
2022/05/22 01:05:41;;;;;;;4.78;4.38;;;;;;;15.67;60.74;99072.81;5005664;28;20160;-82
2022/05/22 01:08:07;;;;;;;8.45;4.18;;;;;;;15.59;60.89;99066.13;5005177;28;20723;-82
2022/05/22 01:10:42;;;;;;;6.22;4.15;;;;;;;15.55;60.87;99064.25;5005130;28;20068;-82
2022/05/22 01:13:08;;;;;;;6.63;4.22;;;;;;;15.58;60.86;99069.06;5003564;28;20061;-82
2022/05/22 01:15:34;;;;;;;10.77;4.07;;;;;;;15.44;60.99;99049.22;5007010;28;20069;-82
2022/05/22 01:17:59;;;;;;;7.90;4.72;;;;;;;15.40;61.64;99050.81;4988598;28;20069;-82
2022/05/22 01:20:25;;;;;;;8.52;4.10;;;;;;;15.46;61.23;99065.91;5011780;28;20401;-82
2022/05/22 01:22:50;;;;;;;5.97;3.88;;;;;;;15.53;61.05;99066.41;5009608;28;20029;-82
2022/05/22 01:25:15;;;;;;;9.60;4.55;;;;;;;15.51;61.12;99055.91;5021157;28;20110;-82
2022/05/22 01:27:41;;;;;;;6.35;4.15;;;;;;;15.44;61.45;99044.63;4987441;28;20038;-82
2022/05/22 01:30:17;;;;;;;9.65;4.63;;;;;;;15.41;61.53;99058.63;5024796;28;20027;-82
2022/05/22 01:32:45;;;;;;;7.13;4.25;;;;;;;15.40;61.49;99053.50;5006348;28;20061;-82
2022/05/22 01:35:15;;;;;;;9.20;3.90;;;;;;;15.48;61.32;99050.28;5006597;28;20403;-82
2022/05/22 01:37:41;;;;;;;5.63;4.30;;;;;;;15.47;61.16;99051.34;5006897;28;20030;-82
2022/05/22 01:40:07;;;;;;;8.77;4.30;;;;;;;15.47;61.06;99059.44;5018953;28;20048;-82
2022/05/22 01:42:33;;;;;;;6.95;3.95;;;;;;;15.42;60.98;99054.84;5004517;28;20049;-82
2022/05/22 01:44:58;;;;;;;7.05;3.80;;;;;;;15.40;61.13;99045.44;5000097;28;20029;-82
2022/05/22 01:47:24;;;;;;;7.95;4.20;;;;;;;15.28;61.15;99040.38;4990007;28;20034;-82
2022/05/22 01:49:49;;;;;;;4.88;4.18;;;;;;;15.25;61.82;99045.47;5007227;28;20544;-82
2022/05/22 01:52:14;;;;;;;8.63;4.30;;;;;;;15.31;61.66;99057.84;5005850;28;20034;-82
2022/05/22 01:54:40;;;;;;;7.80;4.22;;;;;;;15.32;61.37;99064.81;4990155;28;20046;-82
2022/05/22 01:57:05;;;;;;;5.28;3.97;;;;;;;15.23;61.48;99053.84;5010211;28;20066;-82
2022/05/22 01:59:32;;;;;;;4.88;3.78;;;;;;;15.30;61.58;99058.91;5019226;28;20873;-82
2022/05/22 02:01:57;;;;;;;8.05;4.13;;;;;;;15.24;61.33;99054.63;5013820;28;20034;-81
2022/05/22 02:04:23;;;;;;;6.95;3.70;;;;;;;15.19;61.74;99046.56;5014324;28;20104;-82
2022/05/22 02:09:34;;;;;;;7.68;4.30;;;;;;;15.12;61.26;99038.00;5006886;28;20045;-82
2022/05/22 02:11:59;;;;;;;6.13;3.80;;;;;;;15.19;61.79;99049.25;5007560;28;20040;-82
2022/05/22 02:14:25;;;;;;;4.40;4.00;;;;;;;15.10;61.10;99040.16;5003095;28;20021;-82
2022/05/22 02:16:50;;;;;;;6.07;4.45;;;;;;;15.17;61.33;99043.34;5008942;28;20030;-82
2022/05/22 02:19:15;;;;;;;4.60;4.10;;;;;;;15.12;61.32;99044.19;5003736;28;20076;-82
2022/05/22 02:21:41;;;;;;;4.63;3.97;;;;;;;15.15;61.72;99040.16;5006401;28;20157;-82
2022/05/22 02:24:06;;;;;;;6.75;3.30;;;;;;;14.96;61.66;99031.88;5010069;28;20037;-82
2022/05/22 02:26:31;;;;;;;5.32;3.40;;;;;;;14.87;61.63;99020.06;5013427;28;20037;-82
2022/05/22 02:28:57;;;;;;;5.45;3.95;;;;;;;14.93;61.65;99027.03;5010919;28;20048;-82
2022/05/22 02:31:22;;;;;;;4.60;3.45;;;;;;;14.96;61.69;99034.56;5012662;28;20037;-82
2022/05/22 02:33:47;;;;;;;5.63;3.50;;;;;;;14.98;61.52;99038.56;4993664;28;20034;-82
2022/05/22 02:36:14;;;;;;;4.88;3.22;;;;;;;14.99;61.39;99034.81;5013233;28;20036;-82
2022/05/22 02:38:40;;;;;;;7.45;3.95;;;;;;;14.90;61.21;99020.31;5004207;28;20061;-82
2022/05/22 02:41:15;;;;;;;3.67;2.97;;;;;;;14.98;61.36;99030.50;5015255;28;20026;-82
2022/05/22 02:43:41;;;;;;;5.18;3.50;;;;;;;14.95;61.40;99038.31;5006762;28;20131;-82
2022/05/22 02:46:11;;;;;;;5.05;2.97;;;;;;;14.94;61.45;99028.63;5008776;28;20036;-81
2022/05/22 02:48:36;;;;;;;6.55;4.10;;;;;;;14.87;61.11;99017.38;5022983;28;20049;-82
2022/05/22 02:51:02;;;;;;;5.78;3.50;;;;;;;14.90;61.11;99025.69;5012886;28;20061;-82
2022/05/22 02:53:27;;;;;;;5.70;3.83;;;;;;;14.84;61.65;99024.09;5005617;28;20286;-82
2022/05/22 02:55:52;;;;;;;6.28;4.05;;;;;;;14.74;61.30;99009.88;5013374;28;20054;-82
2022/05/22 02:58:18;;;;;;;6.70;4.32;;;;;;;14.72;61.21;99012.81;5007553;28;20486;-82
2022/05/22 03:00:43;;;;;;;6.78;3.83;;;;;;;14.85;61.50;99023.00;5027807;28;20031;-82
2022/05/22 03:03:08;;;;;;;5.05;3.70;;;;;;;14.75;61.35;99022.22;5006374;28;20060;-82
2022/05/22 03:08:17;;;;;;;4.78;3.55;;;;;;;14.71;61.60;99023.81;5002977;28;20061;-82
2022/05/22 03:10:44;;;;;;;5.70;3.45;;;;;;;14.75;61.40;99038.31;5001239;28;20025;-82
2022/05/22 03:13:10;;;;;;;4.80;3.53;;;;;;;14.69;61.13;99029.47;5011432;28;20026;-82
2022/05/22 03:15:35;;;;;;;4.78;3.28;;;;;;;14.63;61.37;99021.69;5008959;28;20033;-82
2022/05/22 03:18:01;;;;;;;5.97;3.97;;;;;;;14.66;61.62;99024.63;4992901;28;20136;-82
2022/05/22 03:20:26;;;;;;;8.60;4.28;;;;;;;14.61;61.31;99024.63;5009501;28;20038;-83
2022/05/22 03:22:51;;;;;;;6.47;4.13;;;;;;;14.59;61.51;99037.53;4976786;28;21392;-82
2022/05/22 03:25:17;;;;;;;6.22;4.10;;;;;;;14.55;61.69;99032.97;5010931;28;20041;-82
2022/05/22 03:27:42;;;;;;;4.50;4.07;;;;;;;14.55;61.62;99025.72;5011772;28;20025;-82
2022/05/22 03:30:08;;;;;;;7.65;4.55;;;;;;;14.58;61.66;99033.25;5009815;28;20026;-81
2022/05/22 03:32:33;;;;;;;4.53;4.03;;;;;;;14.57;61.55;99022.78;5011424;28;20037;-82
2022/05/22 03:35:00;;;;;;;9.20;4.40;;;;;;;14.56;61.53;99030.03;5021193;28;20083;-82
2022/05/22 03:37:26;;;;;;;7.65;4.35;;;;;;;14.50;61.63;99024.94;5006941;28;20026;-82
2022/05/22 03:39:52;;;;;;;6.47;4.80;;;;;;;14.52;61.45;99031.66;5021012;28;20032;-82
2022/05/22 03:42:18;;;;;;;5.50;4.30;;;;;;;14.45;61.71;99023.06;5003200;28;20029;-82
2022/05/22 03:44:43;;;;;;;10.05;5.05;;;;;;;14.44;61.50;99018.72;4990485;28;20044;-82
2022/05/22 03:47:08;;;;;;;7.15;3.83;;;;;;;14.46;61.48;99026.53;4986535;28;20029;-81
2022/05/22 03:49:34;;;;;;;7.05;5.20;;;;;;;14.36;61.98;99030.03;5012038;28;20288;-82
2022/05/22 03:52:00;;;;;;;4.97;4.15;;;;;;;14.43;62.02;99027.06;5010705;28;20041;-82
2022/05/22 03:54:25;;;;;;;5.63;4.57;;;;;;;14.47;61.55;99031.63;5010574;28;20504;-82
2022/05/22 03:56:51;;;;;;;6.68;4.47;;;;;;;14.42;61.86;99023.56;5008755;28;20063;-82
2022/05/22 03:59:16;;;;;;;6.50;4.05;;;;;;;14.42;61.53;99023.56;4991510;28;20042;-81
2022/05/22 04:01:41;;;;;;;4.60;3.85;;;;;;;14.37;61.64;99006.66;4990873;28;20034;-82
2022/05/22 04:04:06;;;;;;;8.32;4.43;;;;;;;14.33;61.86;99001.00;4992818;28;20147;-81
2022/05/22 04:06:32;;;;;;;4.75;4.25;;;;;;;14.44;61.83;99004.53;5021315;28;20037;-82
2022/05/22 04:08:57;;;;;;;7.03;4.70;;;;;;;14.36;61.91;99002.34;5018014;28;20030;-82
2022/05/22 04:11:23;;;;;;;8.10;4.90;;;;;;;14.44;61.69;99008.00;5013718;28;20038;-82
2022/05/22 04:13:48;;;;;;;9.00;4.40;;;;;;;14.48;62.15;99005.59;4998237;28;20061;-82
2022/05/22 04:16:13;;;;;;;5.15;4.30;;;;;;;14.38;61.76;98987.59;5027213;28;20397;-82
2022/05/22 04:18:39;;;;;;;6.72;4.70;;;;;;;14.40;62.54;99004.25;5008731;28;20093;-82
2022/05/22 04:21:05;;;;;;;7.95;5.22;;;;;;;14.51;61.96;98979.00;5014705;28;20080;-82
2022/05/22 04:26:14;;;;;;;7.63;4.68;;;;;;;14.85;61.21;99006.88;5013461;28;20037;-82
2022/05/22 04:28:40;;;;;;;6.55;5.32;;;;;;;14.89;61.29;99007.97;5013180;28;20473;-82
2022/05/22 04:31:06;;;;;;;7.53;4.68;;;;;;;14.98;61.44;99011.69;4994399;28;20474;-82
2022/05/22 04:33:31;;;;;;;8.05;5.30;;;;;;;15.01;61.60;99026.47;5013056;28;20501;-81
2022/05/22 04:35:58;;;;;;;10.00;5.55;;;;;;;15.05;61.40;99024.06;5023193;28;20041;-82
2022/05/22 04:38:23;;;;;;;5.38;4.88;;;;;;;15.15;61.53;99027.50;5020826;28;20049;-83
2022/05/22 04:40:54;;;;;;;6.75;5.18;;;;;;;15.15;61.54;99022.13;4993428;28;20037;-82
2022/05/22 04:43:20;;;;;;;7.10;5.35;;;;;;;15.26;61.15;99023.72;5011135;28;20022;-82
2022/05/22 04:45:45;;;;;;;7.22;5.60;;;;;;;15.34;61.00;99022.31;5013480;28;20500;-82
2022/05/22 04:48:10;;;;;;;7.55;4.90;;;;;;;15.45;60.88;99013.16;5006607;28;20505;-82
2022/05/22 04:50:35;;;;;;;6.57;4.40;;;;;;;15.57;60.85;99029.81;5011528;28;20034;-82
2022/05/22 04:53:01;;;;;;;6.65;5.07;;;;;;;15.54;61.00;99008.81;4974647;28;20030;-82
2022/05/22 04:55:26;;;;;;;8.55;5.40;;;;;;;15.58;61.09;99015.25;4991549;28;20041;-82
2022/05/22 04:57:52;;;;;;;9.50;5.45;;;;;;;15.59;61.40;99024.97;5014048;28;20496;-82
2022/05/22 05:00:18;;;;;;;7.10;4.60;;;;;;;15.51;61.13;99014.75;5009848;28;20042;-82
2022/05/22 05:02:43;;;;;;;9.65;4.80;;;;;;;15.61;61.09;99026.28;5012037;28;20478;-82
2022/05/22 05:05:08;;;;;;;5.35;4.65;;;;;;;15.52;61.69;99019.06;5007883;28;20045;-81
2022/05/22 05:07:36;;;;;;;6.38;4.70;;;;;;;15.40;61.79;99003.19;5009569;28;20052;-82
2022/05/22 05:10:02;;;;;;;5.93;5.05;;;;;;;15.57;61.67;99008.28;5004493;28;20064;-82
2022/05/22 05:12:27;;;;;;;5.72;4.97;;;;;;;15.61;61.64;98999.38;5005072;28;20495;-82
2022/05/22 05:14:53;;;;;;;9.05;4.55;;;;;;;15.60;62.39;99008.53;5008062;28;20477;-81
2022/05/22 05:17:18;;;;;;;9.95;5.43;;;;;;;15.65;62.19;99005.00;4988452;28;20026;-82
2022/05/22 05:19:45;;;;;;;7.30;4.85;;;;;;;15.71;61.89;99009.28;5017288;28;20058;-82
2022/05/22 05:22:11;;;;;;;9.60;5.22;;;;;;;15.83;61.92;99014.31;5008522;28;20388;-81
2022/05/22 05:24:37;;;;;;;6.88;5.32;;;;;;;15.83;61.92;99004.38;5026993;28;20532;-81
2022/05/22 05:27:02;;;;;;;6.50;4.93;;;;;;;15.94;61.70;99019.38;5010407;28;20404;-82
2022/05/22 05:29:28;;;;;;;6.20;5.40;;;;;;;15.87;61.46;98997.34;5008494;28;20105;-81
2022/05/22 05:31:53;;;;;;;8.45;5.68;;;;;;;16.01;61.46;99011.78;5022394;28;20042;-82
2022/05/22 05:34:19;;;;;;;7.10;5.00;;;;;;;16.06;61.68;99008.25;5002824;28;20041;-82
2022/05/22 05:36:45;;;;;;;8.30;5.35;;;;;;;16.06;61.41;99009.06;5008154;28;20029;-82
2022/05/22 05:39:11;;;;;;;8.55;5.70;;;;;;;16.13;61.29;99012.25;4991826;28;20025;-82
2022/05/22 05:41:36;;;;;;;6.60;5.65;;;;;;;15.99;61.58;98995.09;5010021;28;20036;-82
2022/05/22 05:44:05;;;;;;;8.68;5.63;;;;;;;16.09;61.74;99007.69;5009180;28;20055;-82
2022/05/22 05:46:35;;;;;;;6.57;5.72;;;;;;;16.25;61.15;99022.69;5005656;28;20460;-82
2022/05/22 05:49:02;;;;;;;6.18;5.25;;;;;;;16.31;61.35;99022.34;5003805;28;20034;-82
2022/05/22 05:51:28;;;;;;;9.07;6.18;;;;;;;16.29;61.74;99021.81;5008484;28;20125;-82
2022/05/22 05:53:53;;;;;;;12.77;6.55;;;;;;;16.29;61.37;99021.81;5010036;28;20328;-83
2022/05/22 05:56:18;;;;;;;7.97;5.20;;;;;;;16.41;61.32;99030.34;5009846;28;20034;-82
2022/05/22 05:58:44;;;;;;;8.77;5.90;;;;;;;16.35;61.43;99009.94;5014061;28;20026;-82
2022/05/22 06:01:11;;;;;;;8.25;6.03;;;;;;;16.45;61.51;99022.50;5013128;28;20121;-82
2022/05/22 06:03:37;;;;;;;9.85;5.85;;;;;;;16.53;61.45;99011.16;5010016;28;20120;-82
2022/05/22 06:06:06;;;;;;;9.50;6.30;;;;;;;16.59;61.72;99010.03;4995359;28;20486;-82
2022/05/22 06:08:31;;;;;;;10.77;6.93;;;;;;;16.66;61.44;99015.09;5008725;28;20495;-81
2022/05/22 06:10:58;;;;;;;9.73;5.95;;;;;;;16.67;60.92;99006.72;5012717;28;20036;-81
2022/05/22 06:13:24;;;;;;;9.13;5.78;;;;;;;16.77;61.10;99005.81;5011069;28;20038;-81
2022/05/22 06:15:50;;;;;;;6.32;5.53;;;;;;;16.73;61.46;99000.19;5012350;28;20084;-81
2022/05/22 06:18:15;;;;;;;10.32;6.30;;;;;;;16.76;60.81;98998.81;5013926;28;20544;-82
2022/05/22 06:20:40;;;;;;;10.20;6.35;;;;;;;16.81;60.63;98996.88;4977997;28;20470;-82
2022/05/22 06:23:05;;;;;;;12.05;6.53;;;;;;;16.90;60.81;99003.25;4994998;28;20033;-81
2022/05/22 06:25:31;;;;;;;10.18;5.88;;;;;;;16.95;60.77;98997.00;5007328;28;20482;-82
2022/05/22 06:27:56;;;;;;;6.90;5.53;;;;;;;17.01;60.53;98991.28;5006450;28;20088;-82
2022/05/22 06:30:22;;;;;;;9.10;5.53;;;;;;;16.94;60.95;98979.22;5010786;28;20053;-82
2022/05/22 06:32:48;;;;;;;10.45;6.30;;;;;;;17.01;60.84;98985.06;5012021;28;20034;-82
2022/05/22 06:35:14;;;;;;;9.68;5.82;;;;;;;17.09;61.18;98987.13;5005172;28;20357;-82
2022/05/22 06:37:40;;;;;;;10.73;5.75;;;;;;;17.15;61.24;98997.56;5006311;28;20120;-82
2022/05/22 06:40:07;;;;;;;7.55;5.50;;;;;;;17.18;61.21;98991.63;5010585;28;20133;-82
2022/05/22 06:42:36;;;;;;;8.43;5.32;;;;;;;17.22;61.34;98987.25;5012171;28;20420;-82
2022/05/22 06:45:13;;;;;;;6.47;4.90;;;;;;;17.29;60.83;98989.59;5020739;28;20381;-81
2022/05/22 06:47:41;;;;;;;10.85;5.18;;;;;;;17.35;60.54;98982.22;5009213;28;20538;-82
2022/05/22 06:50:11;;;;;;;8.63;5.15;;;;;;;17.39;60.83;98981.38;5013747;28;20021;-82
2022/05/22 06:52:37;;;;;;;8.18;5.28;;;;;;;17.37;60.67;98967.38;5009270;28;20122;-82
2022/05/22 06:55:04;;;;;;;8.48;6.03;;;;;;;17.43;60.63;98970.81;5011801;28;20061;-82
2022/05/22 06:57:29;;;;;;;9.57;5.38;;;;;;;17.60;60.29;98971.97;4994549;28;20485;-82
2022/05/22 06:59:57;;;;;;;6.20;4.68;;;;;;;17.62;59.98;98977.06;5010789;28;20033;-82
2022/05/22 07:02:24;;;;;;;8.23;5.20;;;;;;;17.68;60.57;98976.69;5029375;28;20124;-82
2022/05/22 07:04:50;;;;;;;9.93;5.43;;;;;;;17.74;60.00;98977.41;5024176;28;20466;-82
2022/05/22 07:07:16;;;;;;;9.32;5.28;;;;;;;17.78;60.37;98976.56;4990179;28;20287;-82
2022/05/22 07:09:42;;;;;;;12.80;5.40;;;;;;;17.78;59.67;98978.44;5010363;28;20449;-82
2022/05/22 07:12:10;;;;;;;20.83;5.72;;;;;;;17.77;59.68;98984.94;5009531;28;20041;-81
2022/05/22 07:14:37;;;;;;;11.32;5.78;;;;;;;17.66;58.53;98978.91;5009465;28;20034;-81
2022/05/22 07:17:04;;;;;;;10.77;6.47;;;;;;;17.55;58.87;98974.72;5007746;28;20091;-84
2022/05/22 07:19:34;;;;;;;42.42;9.13;;;;;;;17.49;59.62;98966.94;4989903;28;20125;-82
2022/05/22 07:21:59;;;;;;;19.30;6.93;;;;;;;17.51;60.04;98979.09;4988691;28;20177;-83
2022/05/22 07:24:25;;;;;;;21.23;8.60;;;;;;;17.44;60.15;98967.00;5011927;28;20034;-83
2022/05/22 07:26:50;;;;;;;10.95;6.78;;;;;;;17.49;60.23;98986.66;5008538;28;20088;-83
2022/05/22 07:29:15;;;;;;;20.67;6.88;;;;;;;17.49;59.59;98993.94;5009085;28;20034;-83
2022/05/22 07:31:41;;;;;;;13.75;5.50;;;;;;;17.42;59.27;98980.00;4996417;28;20045;-84
2022/05/22 07:34:07;;;;;;;16.88;5.80;;;;;;;17.47;58.49;98982.63;5012057;28;20464;-82
2022/05/22 07:36:32;;;;;;;11.02;5.20;;;;;;;17.42;59.32;98964.63;5023002;28;20088;-82
2022/05/22 07:38:57;;;;;;;11.85;5.85;;;;;;;17.50;59.50;98976.63;5004746;28;20034;-82
2022/05/22 07:41:23;;;;;;;23.25;6.47;;;;;;;17.42;59.09;98963.81;5007434;28;20041;-82
2022/05/22 07:43:48;;;;;;;15.48;5.07;;;;;;;17.50;59.65;98965.84;5011277;28;20064;-81
2022/05/22 07:46:14;;;;;;;18.27;4.75;;;;;;;17.65;59.29;98971.88;5009850;28;20030;-80
2022/05/22 07:48:41;;;;;;;46.60;6.45;;;;;;;17.68;58.26;98968.59;5008948;28;20061;-80
2022/05/22 07:51:08;;;;;;;17.60;5.10;;;;;;;17.66;58.58;98969.97;5007371;28;20030;-79
2022/05/22 07:53:33;;;;;;;11.80;4.32;;;;;;;17.64;58.67;98955.97;5003855;28;20050;-79
2022/05/22 07:55:59;;;;;;;16.70;5.70;;;;;;;17.69;58.33;98966.72;5009939;28;20476;-80
2022/05/22 07:58:26;;;;;;;49.25;6.35;;;;;;;17.65;58.61;98950.28;4991419;28;20124;-79
2022/05/22 08:00:54;;;;;;;87.63;11.05;;;;;;;17.80;58.46;98954.69;5010861;28;20065;-79
2022/05/22 08:03:20;;;;;;;60.88;8.60;;;;;;;17.79;59.20;98958.47;5023022;28;20352;-80
2022/05/22 08:05:46;;;;;;;43.72;8.00;;;;;;;17.76;58.59;98970.63;5007243;28;20527;-80
2022/05/22 08:08:11;;;;;;;24.95;6.35;;;;;;;17.82;58.00;98955.19;5009630;28;20046;-80
2022/05/22 08:10:39;;;;;;;20.73;6.03;;;;;;;17.87;57.96;98945.09;5009188;28;20065;-81
2022/05/22 08:13:05;;;;;;;23.67;5.57;;;;;;;17.99;57.40;98952.75;5007820;28;20038;-80
2022/05/22 08:15:32;;;;;;;22.00;5.75;;;;;;;18.08;57.81;98956.41;5025406;28;20073;-80
2022/05/22 08:17:58;;;;;;;31.20;6.25;;;;;;;18.02;57.82;98935.94;5011371;28;20054;-80
2022/05/22 08:20:25;;;;;;;16.42;6.95;;;;;;;18.05;57.96;98939.97;5010455;28;20034;-81
2022/05/22 08:23:00;;;;;;;1239.15;139.18;;;;;;;18.09;58.16;98939.06;5013694;28;20030;-80
2022/05/22 08:25:27;;;;;;;1650.25;190.25;;;;;;;18.15;58.43;98945.22;5010059;28;20544;-80
2022/05/22 08:27:53;;;;;;;386.60;34.70;;;;;;;18.04;57.90;98936.47;5021413;28;20049;-80
2022/05/22 08:30:21;;;;;;;103.95;15.07;;;;;;;18.11;58.32;98933.41;5012804;28;20021;-80
2022/05/22 08:32:48;;;;;;;1117.32;112.55;;;;;;;18.04;58.37;98938.38;5007081;28;20025;-80
2022/05/22 08:35:16;;;;;;;1030.18;110.88;;;;;;;17.97;58.71;98925.25;5010550;28;20052;-79
2022/05/22 08:37:42;;;;;;;1999.90;710.30;;;;;;;17.93;59.53;98925.00;5008255;28;20476;-80
2022/05/22 08:40:09;;;;;;;1999.90;470.17;;;;;;;18.03;59.34;98915.16;5025287;28;20026;-80
2022/05/22 08:42:59;;;;;;;1999.90;392.60;;;;;;;18.19;58.55;98930.03;5011206;28;20092;-80
2022/05/22 08:45:30;;;;;;;1999.90;276.52;;;;;;;18.22;58.12;98913.19;5006453;28;20477;-80
2022/05/22 08:48:01;;;;;;;1902.35;239.60;;;;;;;18.28;58.10;98925.53;4992838;28;20095;-80
2022/05/22 08:50:29;;;;;;;1999.90;319.48;;;;;;;18.37;58.30;98921.84;5007308;28;20038;-80
2022/05/22 08:53:11;;;;;;;1999.90;422.55;;;;;;;18.60;57.85;98920.13;5011141;28;20038;-80
2022/05/22 08:58:57;;;;;;;555.70;55.08;;;;;;;18.58;56.63;98919.63;5009772;28;20440;-80
2022/05/22 09:01:35;;;;;;;139.05;16.33;;;;;;;18.47;56.05;98915.50;5012243;28;20034;-80
2022/05/22 09:04:22;;;;;;;127.60;12.38;;;;;;;18.58;55.73;98935.84;5010164;28;20100;-79
2022/05/22 09:07:03;;;;;;;66.75;11.85;;;;;;;18.57;55.33;98920.72;5020295;28;20040;-80
2022/05/22 09:09:32;;;;;;;160.23;14.98;;;;;;;18.62;56.60;98926.03;5007245;28;20046;-79
2022/05/22 09:12:09;;;;;;;142.82;15.13;;;;;;;18.55;57.74;98928.31;4992033;28;20038;-80
2022/05/22 09:14:48;;;;;;;58.58;9.63;;;;;;;18.55;57.81;98918.31;5022646;28;20091;-80
2022/05/22 09:17:17;;;;;;;24.88;7.35;;;;;;;18.69;58.95;98926.44;5000181;28;20053;-80
2022/05/22 09:19:53;;;;;;;16.90;6.72;;;;;;;18.74;58.65;98922.84;5006936;28;20064;-79
2022/05/22 09:22:23;;;;;;;10.68;6.45;;;;;;;18.85;59.39;98916.94;5007083;28;20092;-80
2022/05/22 09:25:18;;;;;;;11.88;5.78;;;;;;;19.02;57.38;98910.94;5007535;28;20053;-79
2022/05/22 09:28:00;;;;;;;28.88;7.55;;;;;;;19.09;57.41;98912.13;5012495;28;20080;-80
2022/05/22 09:30:42;;;;;;;33.30;7.05;;;;;;;19.20;56.38;98912.69;5023301;28;20022;-80
2022/05/22 09:33:42;;;;;;;14.68;6.60;;;;;;;19.19;56.91;98911.13;5002782;28;20068;-80
2022/05/22 09:36:56;;;;;;;12.65;5.95;;;;;;;19.13;56.28;98907.69;5006211;28;20076;-80
2022/05/22 09:39:34;;;;;;;14.85;5.45;;;;;;;18.93;57.01;98904.63;4999905;28;20038;-80
2022/05/22 09:42:19;;;;;;;13.15;5.78;;;;;;;18.99;57.15;98904.22;5007911;28;20052;-80
2022/05/22 09:45:00;;;;;;;11.85;5.53;;;;;;;19.11;57.58;98901.78;5006954;28;20022;-80
2022/05/22 09:47:50;;;;;;;12.07;5.43;;;;;;;19.14;57.37;98901.19;5002138;28;20034;-79
2022/05/22 09:50:27;;;;;;;10.57;6.20;;;;;;;19.11;57.25;98896.38;5018871;28;20473;-79
2022/05/22 09:53:05;;;;;;;44.45;8.18;;;;;;;19.13;57.17;98899.56;5009617;28;20504;-79
2022/05/22 09:55:37;;;;;;;16.33;6.50;;;;;;;19.06;57.81;98884.88;4993440;28;20034;-79
2022/05/22 09:58:09;;;;;;;38.75;6.57;;;;;;;19.12;56.12;98892.56;5015273;28;20036;-82
2022/05/22 10:00:48;;;;;;;21.65;6.93;;;;;;;19.26;56.21;98882.50;5025510;28;20030;-80
2022/05/22 10:03:41;;;;;;;29.27;6.35;;;;;;;19.45;55.88;98866.19;5024308;28;20038;-81
2022/05/22 10:06:31;;;;;;;19.30;6.28;;;;;;;19.48;55.40;98881.00;5008773;28;20030;-80
2022/05/22 10:09:34;;;;;;;14.85;6.45;;;;;;;19.98;54.07;98874.41;5004202;28;20022;-80
2022/05/22 10:12:05;;;;;;;16.73;6.35;;;;;;;20.11;54.40;98866.19;5009355;28;20045;-80
2022/05/22 10:15:07;;;;;;;13.15;6.35;;;;;;;20.09;54.32;98862.19;5007894;28;20030;-81
2022/05/22 10:17:41;;;;;;;10.25;5.47;;;;;;;20.15;54.30;98879.91;5007641;28;20062;-80
2022/05/22 10:20:41;;;;;;;14.88;5.68;;;;;;;20.19;54.61;98878.19;5021419;28;20022;-81
2022/05/22 10:23:17;;;;;;;15.43;6.07;;;;;;;20.17;54.99;98864.94;5006624;28;20030;-80
2022/05/22 10:26:15;;;;;;;13.43;5.85;;;;;;;20.16;55.64;98870.66;5007550;28;20402;-80
2022/05/22 10:28:49;;;;;;;7.55;4.88;;;;;;;20.09;54.98;98862.97;5024627;28;20046;-80
2022/05/22 10:31:42;;;;;;;13.07;5.60;;;;;;;20.15;55.61;98864.47;5006764;28;20065;-81
2022/05/22 10:34:47;;;;;;;11.32;6.07;;;;;;;20.22;54.65;98863.25;5027066;28;20097;-80
2022/05/22 10:37:45;;;;;;;10.27;5.50;;;;;;;20.35;54.60;98852.31;5001687;28;20457;-81
2022/05/22 10:40:20;;;;;;;10.80;5.70;;;;;;;20.51;54.76;98864.34;4957729;28;20461;-80
2022/05/22 10:42:50;;;;;;;12.70;6.30;;;;;;;20.58;55.04;98863.88;5009846;28;20030;-80
2022/05/22 10:45:32;;;;;;;15.32;6.03;;;;;;;20.65;53.74;98859.63;5009762;28;20052;-80
2022/05/22 10:48:08;;;;;;;8.82;5.20;;;;;;;20.85;53.62;98859.06;4992268;28;20093;-80
2022/05/22 10:50:34;;;;;;;;;;;;;;;20.93;53.86;98855.56;5014215;28;20036;-80
2022/05/22 10:52:59;;;;;;;12.13;6.10;;;;;;;20.99;53.28;98858.13;5013510;28;19913;-81
2022/05/22 10:55:27;;;;;;;14.80;6.50;;;;;;;21.06;52.89;98855.75;4992775;28;20026;-81
2022/05/22 10:57:59;;;;;;;10.80;5.70;;;;;;;21.17;52.98;98855.16;5009793;28;20030;-80
2022/05/22 11:00:26;;;;;;;12.35;6.13;;;;;;;21.20;52.71;98845.59;5020013;28;20030;-80
2022/05/22 11:02:51;;;;;;;10.43;6.20;;;;;;;21.28;51.17;98831.22;5007412;28;20049;-81
2022/05/22 11:05:26;;;;;;;12.43;5.22;;;;;;;21.51;50.97;98835.38;5011033;28;20064;-80
2022/05/22 11:07:53;;;;;;;9.57;5.50;;;;;;;21.60;50.76;98838.91;5008669;28;20026;-80
2022/05/22 11:10:26;;;;;;;7.13;5.07;;;;;;;21.71;50.70;98848.28;4996218;28;20121;-81
2022/05/22 11:13:22;;;;;;;11.18;4.97;;;;;;;21.72;50.94;98839.03;5014210;28;20065;-81
2022/05/22 11:15:47;;;;;;;14.48;6.00;;;;;;;21.70;51.69;98830.41;5011780;28;20065;-81
2022/05/22 11:18:22;;;;;;;9.25;5.00;;;;;;;21.67;51.66;98833.75;5011188;28;20425;-81
2022/05/22 11:21:04;;;;;;;10.00;6.33;;;;;;;21.67;50.38;98822.91;5010717;28;20132;-81
2022/05/22 11:23:49;;;;;;;15.38;5.45;;;;;;;21.64;49.74;98824.31;5013301;28;20045;-81
2022/05/22 11:26:29;;;;;;;6.90;5.05;;;;;;;21.67;49.51;98823.69;5024143;28;20030;-80
2022/05/22 11:29:13;;;;;;;16.02;5.60;;;;;;;21.68;50.21;98824.50;5007663;28;20050;-80
2022/05/22 11:32:17;;;;;;;8.93;5.45;;;;;;;21.72;50.17;98820.03;5010049;28;20037;-81
2022/05/22 11:35:06;;;;;;;9.88;6.07;;;;;;;21.99;49.79;98819.69;5011570;28;20053;-80
2022/05/22 11:37:56;;;;;;;6.93;4.88;;;;;;;22.02;50.05;98796.47;5011354;28;20540;-81
2022/05/22 11:40:41;;;;;;;11.68;5.28;;;;;;;22.05;50.52;98802.09;5010674;28;20057;-81
2022/05/22 11:43:35;;;;;;;11.02;6.53;;;;;;;22.01;50.71;98809.28;5019452;28;20037;-81
2022/05/22 11:46:05;;;;;;;9.77;4.30;;;;;;;21.96;51.19;98804.03;5002706;28;20040;-81
2022/05/22 11:48:59;;;;;;;10.85;4.43;;;;;;;22.03;49.43;98801.63;5009075;28;20493;-81
2022/05/22 11:51:33;;;;;;;8.60;4.82;;;;;;;22.05;50.18;98785.78;5013435;28;20412;-81
2022/05/22 11:54:07;;;;;;;10.60;4.68;;;;;;;22.00;49.88;98794.09;5009048;28;20481;-81
2022/05/22 11:56:48;;;;;;;10.15;4.70;;;;;;;22.00;50.48;98785.94;5021611;28;20843;-81
2022/05/22 11:59:45;;;;;;;10.68;4.72;;;;;;;22.02;49.81;98783.69;5020541;28;20164;-81